Time;durP1;ratioP1;P1;durP2;ratioP2;P2;SDS_P1;SDS_P2;PMS_P1;PMS_P2;Temp;Humidity;BMP_temperature;BMP_pressure;BME280_temperature;BME280_humidity;BME280_pressure;Samples;Min_cycle;Max_cycle;Signal;HPM_P1;HPM_P2
2021/09/11 00:01:01;;;;;;;23.38;16.25;;;14.50;99.90;;;;;;5093946;28;20031;-92
2021/09/11 00:03:26;;;;;;;26.42;18.70;;;14.40;99.90;;;;;;5095111;28;20147;-90
2021/09/11 00:05:52;;;;;;;24.52;17.33;;;14.40;99.90;;;;;;5114114;28;20056;-91
2021/09/11 00:08:18;;;;;;;28.00;18.77;;;14.40;99.90;;;;;;5114284;28;20027;-91
2021/09/11 00:10:43;;;;;;;29.95;20.25;;;14.40;99.90;;;;;;5114624;28;20485;-91
2021/09/11 00:13:09;;;;;;;23.23;16.85;;;14.50;99.90;;;;;;5114971;28;20466;-89
2021/09/11 00:15:36;;;;;;;24.25;16.83;;;14.60;99.90;;;;;;5110781;28;20076;-92
2021/09/11 00:18:04;;;;;;;27.02;18.25;;;14.70;99.90;;;;;;5094285;28;20105;-91
2021/09/11 00:20:31;;;;;;;29.20;19.52;;;14.70;99.90;;;;;;5077380;28;20034;-91
2021/09/11 00:22:58;;;;;;;28.55;19.58;;;14.70;99.90;;;;;;5077238;28;20166;-91
2021/09/11 00:25:26;;;;;;;24.20;18.08;;;14.70;99.90;;;;;;5093392;28;20119;-92
2021/09/11 00:27:52;;;;;;;26.40;19.48;;;14.70;99.90;;;;;;5093327;28;20401;-91
2021/09/11 00:30:17;;;;;;;27.20;19.85;;;14.60;99.90;;;;;;5093636;28;20115;-92
2021/09/11 00:32:43;;;;;;;25.95;18.70;;;14.60;99.90;;;;;;5093605;28;20424;-91
2021/09/11 00:35:12;;;;;;;29.73;19.60;;;14.60;99.90;;;;;;5076814;28;20028;-92
2021/09/11 00:37:37;;;;;;;31.65;21.60;;;14.60;99.90;;;;;;5093401;28;20028;-92
2021/09/11 00:40:04;;;;;;;30.42;21.85;;;14.50;99.90;;;;;;5093382;28;20020;-92
2021/09/11 00:42:30;;;;;;;30.27;19.67;;;14.50;99.90;;;;;;5075709;28;20119;-92
2021/09/11 00:44:55;;;;;;;33.58;22.23;;;14.40;99.90;;;;;;5076526;28;20122;-91
2021/09/11 00:47:21;;;;;;;31.15;20.60;;;14.50;99.90;;;;;;5092686;28;20436;-91
2021/09/11 00:49:47;;;;;;;29.50;21.33;;;14.40;99.90;;;;;;5093023;28;20123;-90
2021/09/11 00:52:13;;;;;;;31.80;22.70;;;14.40;99.90;;;;;;5076254;28;20097;-91
2021/09/11 00:54:40;;;;;;;32.58;23.33;;;14.40;99.90;;;;;;5093414;28;20016;-90
2021/09/11 00:57:06;;;;;;;31.10;21.30;;;14.50;99.90;;;;;;5093005;28;20032;-91
2021/09/11 00:59:32;;;;;;;29.65;21.55;;;14.50;99.90;;;;;;5093095;28;20020;-91
2021/09/11 01:01:58;;;;;;;29.42;21.45;;;14.60;99.90;;;;;;5093086;28;20030;-92
2021/09/11 01:04:27;;;;;;;28.35;21.83;;;14.60;99.90;;;;;;5075936;28;20027;-91
2021/09/11 01:06:53;;;;;;;32.60;22.02;;;14.60;99.90;;;;;;5076617;28;20035;-92
2021/09/11 01:09:19;;;;;;;29.27;21.60;;;14.60;99.90;;;;;;5092943;28;20024;-95
2021/09/11 01:11:45;;;;;;;26.55;19.23;;;14.50;99.90;;;;;;5076180;28;20437;-91
2021/09/11 01:14:10;;;;;;;31.13;21.92;;;14.50;99.90;;;;;;5096867;28;20020;-91
2021/09/11 01:16:37;;;;;;;32.58;21.52;;;14.60;99.90;;;;;;5097966;28;20496;-91
2021/09/11 01:19:03;;;;;;;33.17;22.70;;;14.60;99.90;;;;;;5098255;28;20028;-93
2021/09/11 01:21:28;;;;;;;39.13;23.60;;;14.60;99.90;;;;;;5096922;28;20028;-92
2021/09/11 01:23:54;;;;;;;33.88;23.02;;;14.60;99.90;;;;;;5096968;28;20466;-92
2021/09/11 01:26:20;;;;;;;33.15;23.13;;;14.50;99.90;;;;;;5096634;28;20031;-92
2021/09/11 01:28:46;;;;;;;32.63;21.70;;;14.50;99.90;;;;;;5097648;28;20517;-92
2021/09/11 01:31:12;;;;;;;30.52;21.88;;;14.40;99.90;;;;;;5096181;28;20024;-92
2021/09/11 01:33:37;;;;;;;32.67;23.27;;;14.40;99.90;;;;;;5079425;28;20039;-93
2021/09/11 01:36:03;;;;;;;34.85;23.55;;;14.30;99.90;;;;;;5096495;28;20451;-92
2021/09/11 01:38:30;;;;;;;36.05;24.35;;;14.20;99.90;;;;;;5097321;28;20074;-92
2021/09/11 01:40:55;;;;;;;33.80;23.48;;;14.10;99.90;;;;;;5096694;28;20059;-93
2021/09/11 01:43:29;;;;;;;35.95;23.65;;;14.10;99.90;;;;;;5096775;28;20109;-94
2021/09/11 01:45:56;;;;;;;29.80;22.67;;;14.00;99.90;;;;;;5097886;28;20051;-92
2021/09/11 01:48:22;;;;;;;37.28;24.33;;;13.90;99.90;;;;;;5096708;28;20028;-92
2021/09/11 01:50:47;;;;;;;29.52;22.25;;;13.90;99.90;;;;;;5079152;28;20059;-92
2021/09/11 01:53:13;;;;;;;38.53;25.00;;;13.80;99.90;;;;;;5096278;28;20115;-93
2021/09/11 01:55:39;;;;;;;31.92;22.88;;;13.80;99.90;;;;;;5096581;28;20024;-92
2021/09/11 01:58:05;;;;;;;33.13;23.85;;;13.80;99.90;;;;;;5097067;28;20039;-92
2021/09/11 02:00:30;;;;;;;37.88;24.50;;;13.70;99.90;;;;;;5096017;28;20020;-93
2021/09/11 02:02:57;;;;;;;35.70;24.38;;;13.70;99.90;;;;;;5097401;28;20054;-93
2021/09/11 02:05:23;;;;;;;30.98;21.55;;;13.70;99.90;;;;;;5097378;28;20032;-93
2021/09/11 02:07:49;;;;;;;34.70;22.00;;;13.60;99.90;;;;;;5095911;28;20121;-92
2021/09/11 02:10:18;;;;;;;37.63;23.83;;;13.60;99.90;;;;;;5096299;28;20463;-93
2021/09/11 02:12:44;;;;;;;38.47;25.45;;;13.60;99.90;;;;;;5096323;28;20039;-92
2021/09/11 02:15:10;;;;;;;36.67;23.45;;;13.60;99.90;;;;;;5096268;28;20020;-92
2021/09/11 02:17:40;;;;;;;34.80;24.80;;;13.70;99.90;;;;;;5095472;28;20137;-92
2021/09/11 02:20:07;;;;;;;35.10;25.33;;;13.70;99.90;;;;;;5096604;28;20049;-93
2021/09/11 02:22:33;;;;;;;33.78;25.00;;;13.60;99.90;;;;;;5095217;28;20036;-92
2021/09/11 02:24:58;;;;;;;36.25;23.95;;;13.60;99.90;;;;;;5078872;28;20046;-92
2021/09/11 02:27:25;;;;;;;38.45;25.42;;;13.50;99.90;;;;;;5078891;28;20111;-92
2021/09/11 02:29:52;;;;;;;35.65;23.73;;;13.50;99.90;;;;;;5094988;28;20020;-93
2021/09/11 02:32:18;;;;;;;34.63;25.25;;;13.50;99.90;;;;;;5095243;28;20032;-93
2021/09/11 02:34:43;;;;;;;37.85;24.92;;;13.50;99.90;;;;;;5078739;28;20512;-92
2021/09/11 02:37:11;;;;;;;33.33;23.35;;;13.40;99.90;;;;;;5096550;28;20447;-92
2021/09/11 02:39:38;;;;;;;38.10;26.65;;;13.40;99.90;;;;;;5096549;28;20024;-93
2021/09/11 02:42:06;;;;;;;35.97;25.25;;;13.30;99.90;;;;;;5095136;28;20482;-93
2021/09/11 02:44:32;;;;;;;37.47;25.10;;;13.30;99.90;;;;;;5096509;28;20028;-93
2021/09/11 02:46:59;;;;;;;37.05;25.25;;;13.30;99.90;;;;;;5095384;28;20082;-94
2021/09/11 02:49:24;;;;;;;37.22;25.77;;;13.20;99.90;;;;;;5095673;28;20028;-93
2021/09/11 02:51:50;;;;;;;33.75;25.13;;;13.20;99.90;;;;;;5096169;28;20048;-93
2021/09/11 02:54:16;;;;;;;38.13;25.30;;;13.10;99.90;;;;;;5095184;28;20390;-93
2021/09/11 02:56:43;;;;;;;37.30;25.17;;;13.10;99.90;;;;;;5095005;28;20031;-93
2021/09/11 02:59:09;;;;;;;36.97;25.50;;;13.00;99.90;;;;;;5062131;28;20020;-94
2021/09/11 03:01:34;;;;;;;36.08;25.80;;;13.00;99.90;;;;;;5095162;28;20039;-93
2021/09/11 03:04:00;;;;;;;37.25;26.35;;;13.00;99.90;;;;;;5095628;28;20059;-92
2021/09/11 03:06:26;;;;;;;39.35;26.60;;;13.00;99.90;;;;;;5094522;28;20032;-92
2021/09/11 03:08:51;;;;;;;39.72;25.88;;;12.90;99.90;;;;;;5094927;28;20054;-92
2021/09/11 03:11:17;;;;;;;36.67;25.45;;;12.90;99.90;;;;;;5094896;28;20033;-92
2021/09/11 03:13:43;;;;;;;42.17;26.52;;;12.90;99.90;;;;;;5094795;28;20020;-93
2021/09/11 03:16:09;;;;;;;40.75;25.88;;;12.80;99.90;;;;;;5097724;28;20015;-92
2021/09/11 03:18:36;;;;;;;39.22;25.67;;;12.80;99.90;;;;;;5116720;28;20023;-92
2021/09/11 03:21:02;;;;;;;35.80;26.05;;;12.90;99.90;;;;;;5114953;28;20031;-93
2021/09/11 03:23:27;;;;;;;37.05;27.38;;;12.80;99.90;;;;;;5115483;28;20489;-91
2021/09/11 03:25:53;;;;;;;41.13;27.70;;;12.80;99.90;;;;;;5115082;28;20028;-91
2021/09/11 03:28:20;;;;;;;40.03;26.80;;;12.80;99.90;;;;;;5114791;28;20024;-92
2021/09/11 03:30:46;;;;;;;39.17;27.05;;;12.80;99.90;;;;;;5115155;28;20028;-91
2021/09/11 03:33:12;;;;;;;38.15;26.08;;;12.80;99.90;;;;;;5114933;28;20020;-90
2021/09/11 03:35:37;;;;;;;39.05;27.15;;;12.80;99.90;;;;;;5113636;28;20481;-90
2021/09/11 03:38:03;;;;;;;41.10;27.10;;;12.70;99.90;;;;;;5114965;28;20351;-92
2021/09/11 03:40:29;;;;;;;38.50;25.55;;;12.70;99.90;;;;;;5114420;28;20019;-91
2021/09/11 03:42:55;;;;;;;37.15;26.35;;;12.70;99.90;;;;;;5115741;28;20015;-91
2021/09/11 03:45:21;;;;;;;38.45;26.63;;;12.70;99.90;;;;;;5114622;28;20026;-90
2021/09/11 03:47:47;;;;;;;38.33;26.38;;;12.80;99.90;;;;;;5116082;28;20020;-90
2021/09/11 03:50:13;;;;;;;43.50;27.48;;;12.70;99.90;;;;;;5115385;28;20026;-89
2021/09/11 03:52:39;;;;;;;41.38;27.08;;;12.70;99.90;;;;;;5114563;28;20034;-90
2021/09/11 03:55:06;;;;;;;37.13;25.80;;;12.70;99.90;;;;;;5114643;28;20019;-91
2021/09/11 03:57:33;;;;;;;36.38;25.38;;;12.70;99.90;;;;;;5113710;28;20024;-88
2021/09/11 03:59:59;;;;;;;42.00;27.40;;;12.80;99.90;;;;;;5097702;28;20066;-87
2021/09/11 04:02:25;;;;;;;41.47;26.98;;;12.80;99.90;;;;;;5114136;28;20034;-86
2021/09/11 04:04:50;;;;;;;41.03;27.35;;;12.80;99.90;;;;;;5113486;28;20424;-88
2021/09/11 04:07:16;;;;;;;42.58;26.38;;;12.90;99.90;;;;;;5098620;28;20055;-88
2021/09/11 04:09:43;;;;;;;46.25;30.25;;;12.90;99.90;;;;;;5094705;28;20020;-87
2021/09/11 04:12:08;;;;;;;43.85;29.30;;;12.90;99.90;;;;;;5093952;28;20538;-89
2021/09/11 04:14:34;;;;;;;38.00;27.98;;;13.00;99.90;;;;;;5093600;28;20059;-89
2021/09/11 04:17:00;;;;;;;36.85;26.73;;;13.10;99.90;;;;;;5093870;28;20532;-91
2021/09/11 04:19:25;;;;;;;41.42;28.85;;;13.10;99.90;;;;;;5105572;28;20024;-90
2021/09/11 04:21:51;;;;;;;36.80;26.50;;;13.10;99.90;;;;;;5111754;28;20023;-90
2021/09/11 04:24:17;;;;;;;39.70;28.80;;;13.20;99.90;;;;;;5113308;28;20022;-89
2021/09/11 04:26:43;;;;;;;46.13;29.98;;;13.30;99.90;;;;;;5109919;28;20035;-89
2021/09/11 04:29:09;;;;;;;46.83;27.58;;;13.40;99.90;;;;;;5110462;28;20359;-92
2021/09/11 04:31:34;;;;;;;46.70;29.30;;;13.50;99.90;;;;;;5110767;28;20031;-89
2021/09/11 04:34:00;;;;;;;38.95;27.25;;;13.60;99.90;;;;;;5110974;28;20025;-87
2021/09/11 04:36:26;;;;;;;46.42;31.08;;;13.80;99.90;;;;;;5111845;28;20023;-87
2021/09/11 04:38:52;;;;;;;37.85;28.08;;;14.10;99.90;;;;;;5112063;28;20408;-86
2021/09/11 04:41:18;;;;;;;39.55;28.17;;;14.30;99.90;;;;;;5112768;28;20024;-84
2021/09/11 04:43:44;;;;;;;36.95;26.90;;;14.50;99.90;;;;;;5112935;28;20428;-86
2021/09/11 04:46:09;;;;;;;37.38;27.55;;;14.70;99.90;;;;;;5112336;28;20030;-89
2021/09/11 04:48:35;;;;;;;36.72;25.27;;;14.80;99.90;;;;;;5112252;28;20026;-87
2021/09/11 04:51:01;;;;;;;37.58;26.73;;;15.00;99.90;;;;;;5095660;28;20055;-89
2021/09/11 04:53:26;;;;;;;38.47;27.73;;;15.10;99.90;;;;;;5112327;28;20473;-86
2021/09/11 04:55:52;;;;;;;39.65;27.63;;;15.20;99.90;;;;;;5112547;28;20019;-93
2021/09/11 04:58:18;;;;;;;41.10;27.95;;;15.30;99.90;;;;;;5095837;28;20526;-88
2021/09/11 05:00:47;;;;;;;38.08;26.65;;;15.40;99.90;;;;;;5113132;28;20032;-85
2021/09/11 05:03:13;;;;;;;36.40;26.90;;;15.60;99.90;;;;;;5113190;28;20028;-81
2021/09/11 05:05:38;;;;;;;36.25;26.58;;;15.70;99.90;;;;;;5095210;28;20526;-85
2021/09/11 05:08:04;;;;;;;38.38;27.05;;;15.80;99.90;;;;;;5112497;28;20038;-86
2021/09/11 05:10:30;;;;;;;34.35;25.20;;;15.80;99.90;;;;;;5112917;28;20119;-87
2021/09/11 05:12:56;;;;;;;42.40;27.65;;;15.80;99.90;;;;;;5112409;28;20420;-89
2021/09/11 05:15:21;;;;;;;38.55;27.27;;;15.90;99.90;;;;;;5104839;28;20042;-90
2021/09/11 05:17:47;;;;;;;36.55;27.60;;;15.90;99.90;;;;;;5092126;28;20024;-90
2021/09/11 05:20:14;;;;;;;34.95;25.83;;;16.00;99.90;;;;;;5095581;28;20020;-89
2021/09/11 05:22:40;;;;;;;37.83;27.20;;;16.00;99.90;;;;;;5093062;28;20024;-86
2021/09/11 05:25:13;;;;;;;38.90;26.65;;;16.20;99.90;;;;;;5091885;28;20363;-87
2021/09/11 05:27:40;;;;;;;32.95;24.45;;;16.20;99.90;;;;;;5092692;28;20024;-84
2021/09/11 05:30:07;;;;;;;36.55;26.35;;;16.30;99.90;;;;;;5094365;28;20016;-89
2021/09/11 05:32:33;;;;;;;37.75;25.13;;;16.30;99.90;;;;;;5092017;28;20028;-89
2021/09/11 05:34:58;;;;;;;39.95;26.77;;;16.30;99.90;;;;;;5092037;28;20539;-87
2021/09/11 16:51:30;;;;;;;26.85;16.73;;;18.20;94.20;;;;;;5111198;27;21188;-82
2021/09/11 16:53:56;;;;;;;45.95;18.30;;;17.90;95.20;;;;;;5109964;28;20081;-85
2021/09/11 16:56:21;;;;;;;39.60;24.85;;;17.90;96.20;;;;;;5110066;28;20028;-81
2021/09/11 16:58:47;;;;;;;53.92;34.47;;;17.90;97.00;;;;;;5111079;28;20027;-80
2021/09/11 17:01:13;;;;;;;47.00;29.33;;;17.80;97.70;;;;;;5110920;28;20023;-79
2021/09/11 17:03:39;;;;;;;46.15;30.05;;;17.80;98.20;;;;;;5111087;28;20052;-79
2021/09/11 17:06:05;;;;;;;74.47;38.47;;;17.80;98.50;;;;;;5111286;28;20059;-80
2021/09/11 17:08:31;;;;;;;50.60;34.90;;;17.80;98.90;;;;;;5109832;28;20040;-84
2021/09/11 17:10:57;;;;;;;50.92;28.63;;;17.90;99.30;;;;;;5110909;28;20726;-83
2021/09/11 17:13:23;;;;;;;45.53;28.98;;;17.90;99.20;;;;;;5110815;28;20093;-81
2021/09/11 17:15:49;;;;;;;35.85;24.48;;;17.90;99.30;;;;;;5110772;28;20015;-80
2021/09/11 17:18:15;;;;;;;31.92;23.85;;;17.90;99.30;;;;;;5110694;28;20031;-80
2021/09/11 17:20:42;;;;;;;37.22;24.00;;;17.90;99.00;;;;;;5111226;28;20028;-80
2021/09/11 17:23:07;;;;;;;36.33;23.65;;;17.90;99.10;;;;;;5110487;28;20020;-80
2021/09/11 17:25:33;;;;;;;43.60;24.08;;;17.90;99.20;;;;;;5110708;28;20034;-80
2021/09/11 17:28:02;;;;;;;31.90;22.65;;;17.90;99.50;;;;;;5110625;28;20112;-80
2021/09/11 17:30:29;;;;;;;34.95;20.92;;;17.90;99.50;;;;;;5110511;28;20020;-81
2021/09/11 17:32:55;;;;;;;40.28;26.10;;;17.80;99.20;;;;;;5110438;28;20354;-83
2021/09/11 17:35:21;;;;;;;57.60;43.05;;;17.90;99.40;;;;;;5110477;28;20107;-81
2021/09/11 17:37:47;;;;;;;49.53;35.20;;;17.90;99.50;;;;;;5109142;28;20016;-83
2021/09/11 17:40:14;;;;;;;39.08;27.15;;;17.80;99.70;;;;;;5109951;28;20438;-81
2021/09/11 17:42:40;;;;;;;30.45;20.90;;;17.80;99.70;;;;;;5110222;28;20366;-83
2021/09/11 17:45:06;;;;;;;25.92;19.40;;;17.80;99.70;;;;;;5109062;28;20020;-83
2021/09/11 17:47:32;;;;;;;23.27;17.90;;;17.80;99.90;;;;;;5108860;28;20490;-82
2021/09/11 17:49:58;;;;;;;52.33;34.83;;;17.80;99.80;;;;;;5108457;28;20053;-80
2021/09/11 17:52:24;;;;;;;36.40;26.55;;;17.80;99.80;;;;;;5108662;28;20027;-81
2021/09/11 17:54:49;;;;;;;50.90;32.47;;;17.80;99.90;;;;;;5110191;28;20035;-79
2021/09/11 17:57:16;;;;;;;28.48;21.90;;;17.80;99.90;;;;;;5109993;28;20043;-80
2021/09/11 17:59:42;;;;;;;25.67;19.20;;;17.80;99.90;;;;;;5108812;28;20073;-80
2021/09/11 18:02:07;;;;;;;19.20;15.75;;;17.80;99.90;;;;;;5099278;28;20101;-82
2021/09/11 18:04:33;;;;;;;53.00;37.65;;;17.80;99.90;;;;;;5095037;28;20031;-81
2021/09/11 18:06:59;;;;;;;75.68;51.15;;;17.80;99.90;;;;;;5096347;28;20501;-82
2021/09/11 18:09:26;;;;;;;45.88;28.83;;;17.70;99.90;;;;;;5102332;28;20089;-81
2021/09/11 18:11:52;;;;;;;34.00;25.50;;;17.70;99.90;;;;;;5116414;28;20098;-80
2021/09/11 18:14:18;;;;;;;32.25;22.00;;;17.80;99.90;;;;;;5116447;28;20038;-84
2021/09/11 18:16:45;;;;;;;93.45;67.32;;;17.80;99.80;;;;;;5115639;28;20027;-82
2021/09/11 18:19:11;;;;;;;38.28;29.13;;;17.80;99.80;;;;;;5116577;28;20382;-94
2021/09/11 18:21:38;;;;;;;36.75;23.88;;;17.80;99.60;;;;;;5116050;28;20019;-89
2021/09/11 18:24:04;;;;;;;48.83;30.92;;;17.80;99.70;;;;;;5115832;28;20416;-93
2021/09/11 18:26:31;;;;;;;28.38;20.33;;;17.90;99.60;;;;;;5115893;28;20034;-91
2021/09/11 18:28:57;;;;;;;23.48;16.90;;;17.90;99.40;;;;;;5115961;28;20028;-90
2021/09/11 18:31:23;;;;;;;19.55;16.08;;;18.00;99.30;;;;;;5095918;28;20024;-89
2021/09/11 18:33:49;;;;;;;17.30;15.00;;;18.00;99.30;;;;;;5096587;28;20020;-93
2021/09/11 18:36:18;;;;;;;25.08;18.17;;;17.90;98.90;;;;;;5094897;28;20076;-87
2021/09/11 18:38:44;;;;;;;30.95;23.85;;;18.00;99.00;;;;;;5094882;28;20025;-87
2021/09/11 18:41:10;;;;;;;60.17;37.20;;;17.90;99.00;;;;;;5094676;28;20061;-85
2021/09/11 18:43:35;;;;;;;41.63;28.23;;;17.90;99.10;;;;;;5094566;28;20024;-83
2021/09/11 18:46:01;;;;;;;28.08;21.15;;;17.80;99.20;;;;;;5095479;28;20039;-86
2021/09/11 18:48:27;;;;;;;24.90;17.88;;;17.80;99.40;;;;;;5094189;28;20123;-82
2021/09/11 18:50:53;;;;;;;22.63;17.83;;;17.70;99.40;;;;;;5095149;28;20123;-83
2021/09/11 18:53:19;;;;;;;19.83;15.20;;;17.70;99.50;;;;;;5095548;28;20123;-83
2021/09/11 18:55:48;;;;;;;22.75;16.60;;;17.60;99.30;;;;;;5094082;28;20016;-83
2021/09/11 18:58:15;;;;;;;22.45;14.82;;;17.60;99.40;;;;;;5094109;28;20044;-83
2021/09/11 19:00:41;;;;;;;19.83;15.07;;;17.50;99.50;;;;;;5093964;28;20446;-84
2021/09/11 19:03:07;;;;;;;27.58;14.80;;;17.50;99.70;;;;;;5095264;28;20024;-85
2021/09/11 19:05:32;;;;;;;24.48;17.45;;;17.50;99.80;;;;;;5097349;28;20039;-84
2021/09/11 19:07:58;;;;;;;31.42;22.45;;;17.40;99.70;;;;;;5095186;28;20024;-84
2021/09/11 19:10:27;;;;;;;33.17;24.73;;;17.50;99.90;;;;;;5094021;28;20544;-86
2021/09/11 19:12:53;;;;;;;30.45;24.23;;;17.40;99.90;;;;;;5092981;28;20028;-83
2021/09/11 19:15:19;;;;;;;28.10;18.83;;;17.40;99.90;;;;;;5095030;28;20035;-81
2021/09/11 19:17:46;;;;;;;19.13;13.50;;;17.40;99.90;;;;;;5093696;28;20433;-80
2021/09/11 19:20:14;;;;;;;21.50;16.85;;;17.40;99.70;;;;;;5095227;28;20024;-81
2021/09/11 19:22:40;;;;;;;20.38;16.27;;;17.50;99.50;;;;;;5094929;28;20066;-82
2021/09/11 19:25:07;;;;;;;28.95;21.95;;;17.60;99.30;;;;;;5093518;28;20120;-82
2021/09/11 19:27:34;;;;;;;24.88;16.23;;;17.70;99.10;;;;;;5093409;28;20076;-87
2021/09/11 19:30:00;;;;;;;19.63;14.38;;;17.80;99.00;;;;;;5094859;28;20363;-84
2021/09/11 19:32:26;;;;;;;16.33;11.73;;;17.80;98.90;;;;;;5094677;28;20480;-85
2021/09/11 19:34:52;;;;;;;16.38;12.27;;;17.80;98.30;;;;;;5093546;28;20162;-84
2021/09/11 19:37:18;;;;;;;16.13;12.50;;;18.00;96.90;;;;;;5093352;28;20039;-83
2021/09/11 19:39:44;;;;;;;17.55;12.40;;;18.10;97.20;;;;;;5094350;28;20024;-83
2021/09/11 19:42:10;;;;;;;15.43;12.32;;;18.20;95.90;;;;;;5094570;28;20027;-84
2021/09/11 19:44:36;;;;;;;20.80;16.20;;;18.30;94.50;;;;;;5094517;28;20028;-83
2021/09/11 19:47:02;;;;;;;16.40;13.27;;;18.50;94.30;;;;;;5093177;28;20394;-83
2021/09/11 19:49:28;;;;;;;19.60;12.88;;;18.60;93.50;;;;;;5092911;28;20576;-82
2021/09/11 19:51:54;;;;;;;16.40;11.98;;;18.70;93.30;;;;;;5093030;28;20129;-82
2021/09/11 19:54:20;;;;;;;15.50;12.18;;;18.70;92.90;;;;;;5094248;28;20095;-83
2021/09/11 19:56:45;;;;;;;16.23;11.70;;;18.80;91.80;;;;;;5094177;28;20016;-84
2021/09/11 19:59:11;;;;;;;14.77;11.13;;;18.90;91.50;;;;;;5094153;28;20024;-83
2021/09/11 20:01:37;;;;;;;14.77;11.00;;;19.00;90.80;;;;;;5093247;28;20469;-83
2021/09/11 20:04:03;;;;;;;14.50;11.63;;;19.10;90.30;;;;;;5092930;28;20039;-84
2021/09/11 20:06:30;;;;;;;13.52;11.65;;;19.20;88.90;;;;;;5092800;28;20025;-85
2021/09/11 20:08:55;;;;;;;15.50;12.10;;;19.30;87.90;;;;;;5094113;28;20045;-83
2021/09/11 20:11:21;;;;;;;16.90;11.73;;;19.50;86.90;;;;;;5093924;28;20111;-83
2021/09/11 20:13:47;;;;;;;15.05;11.50;;;19.50;86.70;;;;;;5094001;28;20020;-82
2021/09/11 20:16:13;;;;;;;17.15;12.38;;;19.50;86.60;;;;;;5092550;28;20016;-83
2021/09/11 20:18:38;;;;;;;16.55;13.60;;;19.50;86.70;;;;;;5093780;28;20028;-83
2021/09/11 20:21:04;;;;;;;17.30;13.05;;;19.50;86.60;;;;;;5093780;28;20028;-83
2021/09/11 20:23:30;;;;;;;17.58;12.05;;;19.50;86.70;;;;;;5093432;28;20099;-82
2021/09/11 20:25:55;;;;;;;15.82;11.90;;;19.50;86.00;;;;;;5092178;28;20032;-81
2021/09/11 20:28:22;;;;;;;17.35;12.88;;;19.50;86.30;;;;;;5092496;28;20024;-81
2021/09/11 20:30:48;;;;;;;16.05;12.68;;;19.50;86.10;;;;;;5093725;28;20111;-81
2021/09/11 20:33:14;;;;;;;16.23;12.73;;;19.50;86.10;;;;;;5093657;28;20100;-81
2021/09/11 20:35:40;;;;;;;18.67;13.13;;;19.50;85.80;;;;;;5092214;28;20047;-83
2021/09/11 20:38:06;;;;;;;18.23;13.20;;;19.40;86.00;;;;;;5092456;28;20389;-83
2021/09/11 20:40:31;;;;;;;15.38;12.55;;;19.40;86.20;;;;;;5093780;28;20035;-81
2021/09/11 20:42:57;;;;;;;16.48;12.35;;;19.30;86.60;;;;;;5093768;28;20024;-80
2021/09/11 20:45:23;;;;;;;18.83;14.02;;;19.30;87.40;;;;;;5093753;28;20024;-81
2021/09/11 20:47:49;;;;;;;20.25;12.77;;;19.20;87.80;;;;;;5093896;28;20517;-81
2021/09/11 20:50:15;;;;;;;15.77;12.77;;;19.10;88.60;;;;;;5093253;28;20048;-79
2021/09/11 20:52:41;;;;;;;17.83;13.00;;;19.10;88.90;;;;;;5093412;28;20031;-81
2021/09/11 20:55:08;;;;;;;19.08;14.27;;;19.10;89.30;;;;;;5092239;28;20157;-81
2021/09/11 20:57:35;;;;;;;15.82;13.40;;;19.10;89.70;;;;;;5093424;28;20565;-81
2021/09/11 21:00:02;;;;;;;17.95;13.07;;;19.00;90.00;;;;;;5093416;28;20028;-81
2021/09/11 21:02:27;;;;;;;17.73;12.88;;;18.90;90.30;;;;;;5093390;28;20379;-81
2021/09/11 21:04:53;;;;;;;18.30;13.50;;;18.80;90.60;;;;;;5092026;28;20034;-81
2021/09/11 21:07:19;;;;;;;19.17;13.63;;;18.70;91.10;;;;;;5092047;28;20097;-81
2021/09/11 21:09:44;;;;;;;18.90;13.45;;;18.60;91.20;;;;;;5093240;28;20103;-81
2021/09/11 21:12:10;;;;;;;18.90;14.20;;;18.50;91.90;;;;;;5093303;28;20065;-81
2021/09/11 21:14:36;;;;;;;20.67;13.77;;;18.40;92.90;;;;;;5092023;28;20370;-81
2021/09/11 21:17:03;;;;;;;17.67;12.32;;;18.20;92.90;;;;;;5093222;28;20058;-81
2021/09/11 21:19:29;;;;;;;18.67;13.73;;;18.10;93.70;;;;;;5093213;28;20013;-81
2021/09/11 21:21:54;;;;;;;21.65;14.93;;;17.90;94.40;;;;;;5093063;28;20599;-81
2021/09/11 21:24:20;;;;;;;18.40;14.50;;;17.80;94.90;;;;;;5093254;28;20028;-81
2021/09/11 21:26:46;;;;;;;18.45;14.32;;;17.60;95.60;;;;;;5093179;28;20099;-81
2021/09/11 21:29:11;;;;;;;17.30;14.45;;;17.50;95.90;;;;;;5091706;28;20467;-81
2021/09/11 21:31:37;;;;;;;18.38;14.02;;;17.40;96.50;;;;;;5091882;28;20028;-81
2021/09/11 21:34:03;;;;;;;18.73;14.68;;;17.30;96.60;;;;;;5093111;28;20463;-81
2021/09/11 21:36:29;;;;;;;24.67;14.98;;;17.30;97.10;;;;;;5093822;28;20650;-81
2021/09/11 21:38:55;;;;;;;22.80;15.13;;;17.30;97.40;;;;;;5095647;28;20020;-81
2021/09/11 21:41:21;;;;;;;20.40;14.93;;;17.10;97.70;;;;;;5096799;28;20482;-81
2021/09/11 21:43:47;;;;;;;21.63;14.82;;;17.10;97.80;;;;;;5096854;28;20016;-81
2021/09/11 21:46:14;;;;;;;23.65;14.63;;;17.10;98.30;;;;;;5096740;28;20027;-81
2021/09/11 21:48:40;;;;;;;17.92;14.25;;;17.00;98.50;;;;;;5095451;28;20112;-81
2021/09/11 21:51:05;;;;;;;18.55;15.23;;;16.90;98.60;;;;;;5096379;28;20562;-82
2021/09/11 21:53:31;;;;;;;19.95;15.40;;;16.90;98.80;;;;;;5096578;28;20430;-81
2021/09/11 21:55:57;;;;;;;20.85;15.45;;;16.90;99.00;;;;;;5096615;28;20420;-81
2021/09/11 21:58:23;;;;;;;20.65;16.33;;;16.80;99.40;;;;;;5096560;28;20056;-81
2021/09/11 22:00:53;;;;;;;21.13;16.30;;;16.70;99.90;;;;;;5096376;28;20024;-80
2021/09/11 22:03:23;;;;;;;24.80;16.40;;;16.60;99.90;;;;;;5095197;28;20028;-81
2021/09/11 22:05:49;;;;;;;;;;;16.50;99.90;;;;;;5095621;28;20085;-81
2021/09/11 22:08:18;;;;;;;23.10;15.32;;;16.40;99.80;;;;;;5096258;28;20328;-81
2021/09/11 22:10:44;;;;;;;20.98;15.68;;;16.40;99.90;;;;;;5095002;28;20020;-80
2021/09/11 22:13:09;;;;;;;26.33;16.48;;;16.30;99.90;;;;;;5096217;28;20042;-81
2021/09/11 22:15:37;;;;;;;29.02;17.20;;;16.20;99.90;;;;;;5094860;28;20521;-81
2021/09/11 22:18:03;;;;;;;22.70;16.95;;;16.20;99.90;;;;;;5096182;28;20032;-82
2021/09/11 22:20:28;;;;;;;24.83;17.05;;;16.10;99.90;;;;;;5095101;28;20024;-81
2021/09/11 22:22:54;;;;;;;22.15;16.58;;;16.10;99.90;;;;;;5095017;28;20110;-80
2021/09/11 22:25:20;;;;;;;23.63;16.15;;;16.00;99.90;;;;;;5095007;28;20107;-80
2021/09/11 22:27:48;;;;;;;26.17;16.85;;;15.90;99.90;;;;;;5094939;28;20024;-80
2021/09/11 22:30:14;;;;;;;23.60;17.63;;;15.90;99.90;;;;;;5096059;28;20031;-80
2021/09/11 22:32:41;;;;;;;27.40;19.02;;;15.80;99.90;;;;;;5094902;28;20044;-80
2021/09/11 22:35:08;;;;;;;23.75;18.10;;;15.80;99.90;;;;;;5094564;28;20027;-80
2021/09/11 22:37:42;;;;;;;27.85;18.00;;;15.70;99.90;;;;;;5096308;28;20073;-80
2021/09/11 22:40:10;;;;;;;26.65;19.40;;;15.70;99.90;;;;;;5095793;28;20478;-80
2021/09/11 22:42:36;;;;;;;23.98;18.25;;;15.60;99.90;;;;;;5095938;28;20540;-80
2021/09/11 22:45:03;;;;;;;24.80;18.63;;;15.60;99.90;;;;;;5095843;28;20028;-80
2021/09/11 22:47:29;;;;;;;25.52;19.27;;;15.60;99.90;;;;;;5095709;28;20032;-80
2021/09/11 22:49:54;;;;;;;27.02;18.50;;;15.50;99.90;;;;;;5095651;28;20056;-80
2021/09/11 22:52:20;;;;;;;27.30;19.67;;;15.50;99.90;;;;;;5094503;28;20073;-80
2021/09/11 22:54:46;;;;;;;28.55;19.50;;;15.40;99.90;;;;;;5095777;28;20020;-80
2021/09/11 22:57:11;;;;;;;24.98;19.60;;;15.40;99.90;;;;;;5095613;28;20077;-80
2021/09/11 22:59:37;;;;;;;25.40;20.48;;;15.40;99.90;;;;;;5095914;28;20052;-80
2021/09/11 23:02:03;;;;;;;22.80;18.27;;;15.40;99.90;;;;;;5095541;28;20036;-80
2021/09/11 23:04:28;;;;;;;24.20;17.77;;;15.30;99.90;;;;;;5095533;28;20472;-79
2021/09/11 23:06:54;;;;;;;22.17;18.15;;;15.30;99.90;;;;;;5095739;28;20413;-79
2021/09/11 23:09:20;;;;;;;24.67;18.25;;;15.20;99.90;;;;;;5095334;28;20095;-79
2021/09/11 23:11:45;;;;;;;25.25;19.50;;;15.20;99.90;;;;;;5095299;28;20012;-80
2021/09/11 23:14:11;;;;;;;27.65;19.23;;;15.20;99.90;;;;;;5095605;28;20030;-80
2021/09/11 23:16:37;;;;;;;22.25;18.08;;;15.10;99.90;;;;;;5095564;28;20430;-80
2021/09/11 23:19:04;;;;;;;23.98;18.80;;;15.10;99.90;;;;;;5095216;28;20466;-80
2021/09/11 23:21:30;;;;;;;27.63;19.70;;;15.10;99.90;;;;;;5093972;28;20035;-80
2021/09/11 23:23:56;;;;;;;30.33;19.80;;;15.00;99.90;;;;;;5095147;28;20035;-80
2021/09/11 23:26:22;;;;;;;25.25;18.20;;;15.00;99.90;;;;;;5093799;28;20027;-80
2021/09/11 23:28:47;;;;;;;25.17;19.30;;;14.90;99.90;;;;;;5095081;28;20459;-80
2021/09/11 23:31:13;;;;;;;25.08;19.20;;;14.90;99.90;;;;;;5094879;28;20016;-80
2021/09/11 23:33:39;;;;;;;20.88;17.10;;;14.90;99.90;;;;;;5093688;28;20020;-80
2021/09/11 23:36:07;;;;;;;26.58;19.05;;;14.80;99.90;;;;;;5094919;28;20069;-80